createdAt,value
2022-11-10T00:01:07.896Z,101167.13
2022-11-10T00:03:35.768Z,101169.00
2022-11-10T00:06:04.106Z,101175.59
2022-11-10T00:08:30.651Z,101185.09
2022-11-10T00:11:01.399Z,101186.38
2022-11-10T00:13:35.143Z,101186.56
2022-11-10T00:16:22.204Z,101191.22
2022-11-10T00:18:48.908Z,101209.41
2022-11-10T00:21:17.186Z,101211.50
2022-11-10T00:23:45.060Z,101213.19
2022-11-10T00:26:19.674Z,101213.59
2022-11-10T00:28:46.074Z,101214.03
2022-11-10T00:31:13.156Z,101222.88
2022-11-10T00:33:42.440Z,101222.44
2022-11-10T00:36:09.527Z,101231.13
2022-11-10T00:38:36.230Z,101234.47
2022-11-10T00:41:03.116Z,101232.97
2022-11-10T00:43:30.474Z,101238.84
2022-11-10T00:45:57.174Z,101233.78
2022-11-10T00:48:23.672Z,101236.25
2022-11-10T00:50:50.406Z,101243.00
2022-11-10T00:53:16.949Z,101244.25
2022-11-10T00:55:43.588Z,101247.19
2022-11-10T00:58:10.059Z,101249.31
2022-11-10T01:00:36.618Z,101248.47
2022-11-10T01:03:03.502Z,101260.72
2022-11-10T01:05:30.724Z,101260.06
2022-11-10T01:07:59.448Z,101256.00
2022-11-10T01:10:26.683Z,101262.13
2022-11-10T01:12:53.243Z,101258.91
2022-11-10T01:15:25.956Z,101265.66
2022-11-10T01:17:55.116Z,101267.78
2022-11-10T01:20:21.832Z,101268.81
2022-11-10T01:22:48.227Z,101276.22
2022-11-10T01:25:14.685Z,101278.31
2022-11-10T01:27:41.110Z,101282.97
2022-11-10T01:30:07.922Z,101281.25
2022-11-10T01:32:34.408Z,101281.94
2022-11-10T01:35:00.812Z,101290.19
2022-11-10T01:37:27.396Z,101295.19
2022-11-10T01:39:53.870Z,101305.72
2022-11-10T01:42:29.645Z,101301.72
2022-11-10T01:45:23.751Z,101305.22
2022-11-10T01:47:53.595Z,101295.66
2022-11-10T01:50:23.398Z,101293.72
2022-11-10T01:52:53.932Z,101303.41
2022-11-10T01:55:20.724Z,101304.84
2022-11-10T01:57:47.435Z,101306.94
2022-11-10T02:00:14.314Z,101304.56
2022-11-10T02:03:00.949Z,101307.47
2022-11-10T02:05:27.323Z,101301.50
2022-11-10T02:07:55.991Z,101307.19
2022-11-10T02:10:22.771Z,101315.81
2022-11-10T02:12:50.159Z,101327.56
2022-11-10T02:15:18.292Z,101322.47
2022-11-10T02:17:47.097Z,101313.34
2022-11-10T02:20:16.873Z,101320.78
2022-11-10T02:22:43.931Z,101327.47
2022-11-10T02:25:13.973Z,101321.13
2022-11-10T02:27:40.455Z,101327.69
2022-11-10T02:30:07.814Z,101327.03
2022-11-10T02:32:34.263Z,101328.44
2022-11-10T02:35:00.685Z,101329.50
2022-11-10T02:37:27.107Z,101338.78
2022-11-10T02:39:53.545Z,101338.09
2022-11-10T02:42:19.980Z,101345.53
2022-11-10T02:44:46.910Z,101353.94
2022-11-10T02:47:13.389Z,101365.31
2022-11-10T02:49:39.815Z,101374.97
2022-11-10T02:52:06.256Z,101368.81
2022-11-10T02:54:32.664Z,101370.91
2022-11-10T02:56:59.112Z,101371.06
2022-11-10T02:59:25.538Z,101375.25
2022-11-10T03:01:51.970Z,101374.78
2022-11-10T03:04:18.428Z,101375.38
2022-11-10T03:06:45.088Z,101383.94
2022-11-10T03:09:11.807Z,101383.47
2022-11-10T03:11:38.218Z,101395.53
2022-11-10T03:14:04.670Z,101391.91
2022-11-10T03:16:31.087Z,101386.22
2022-11-10T03:18:57.621Z,101378.19
2022-11-10T03:21:24.026Z,101385.56
2022-11-10T03:23:50.492Z,101399.47
2022-11-10T03:26:16.928Z,101392.31
2022-11-10T03:28:43.395Z,101392.66
2022-11-10T03:31:09.899Z,101400.22
2022-11-10T03:33:36.478Z,101397.66
2022-11-10T03:36:03.240Z,101405.63
2022-11-10T03:38:29.719Z,101407.69
2022-11-10T03:43:42.673Z,101435.88
2022-11-10T03:46:09.404Z,101430.78
2022-11-10T03:48:35.834Z,101430.28
2022-11-10T03:51:02.224Z,101434.75
2022-11-10T03:53:28.726Z,101453.09
2022-11-10T03:55:55.150Z,101456.88
2022-11-10T03:58:21.523Z,101450.69
2022-11-10T04:00:47.900Z,101457.25
2022-11-10T04:03:14.330Z,101447.94
2022-11-10T04:05:59.189Z,101451.75
2022-11-10T04:08:43.931Z,101432.72
2022-11-10T04:11:10.326Z,101438.22
2022-11-10T04:13:55.403Z,101444.03
2022-11-10T04:16:21.803Z,101457.09
2022-11-10T04:18:48.203Z,101464.66
2022-11-10T04:21:14.991Z,101476.47
2022-11-10T04:23:41.418Z,101470.31
2022-11-10T04:26:28.862Z,101468.63
2022-11-10T04:28:57.990Z,101472.22
2022-11-10T04:31:26.682Z,101481.09
2022-11-10T04:33:54.607Z,101486.09
2022-11-10T04:36:23.809Z,101495.34
2022-11-10T04:38:50.536Z,101495.72
2022-11-10T04:41:17.390Z,101493.00
2022-11-10T04:43:43.945Z,101500.19
2022-11-10T04:46:20.477Z,101503.97
2022-11-10T04:48:46.927Z,101504.16
2022-11-10T04:51:14.151Z,101505.34
2022-11-10T04:53:40.643Z,101520.47
2022-11-10T04:56:07.183Z,101524.25
2022-11-10T04:58:33.611Z,101532.66
2022-11-10T05:01:00.100Z,101528.41
2022-11-10T05:03:26.689Z,101538.50
2022-11-10T05:05:53.258Z,101544.16
2022-11-10T05:08:19.717Z,101544.53
2022-11-10T05:10:46.189Z,101549.34
2022-11-10T05:13:12.591Z,101543.00
2022-11-10T05:15:41.396Z,101555.84
2022-11-10T05:18:08.233Z,101557.91
2022-11-10T05:20:34.663Z,101565.47
2022-11-10T05:23:20.015Z,101561.00
2022-11-10T05:25:46.656Z,101566.69
2022-11-10T05:28:13.447Z,101567.34
2022-11-10T05:30:40.447Z,101568.22
2022-11-10T05:33:07.084Z,101573.53
2022-11-10T05:35:34.593Z,101573.69
2022-11-10T05:38:01.491Z,101585.03
2022-11-10T05:40:28.562Z,101590.66
2022-11-10T05:42:55.065Z,101593.78
2022-11-10T05:45:23.761Z,101595.00
2022-11-10T05:47:50.887Z,101603.38
2022-11-10T05:50:19.584Z,101608.00
2022-11-10T05:52:50.324Z,101603.59
2022-11-10T05:55:19.531Z,101608.38
2022-11-10T05:57:47.322Z,101619.69
2022-11-10T06:00:16.981Z,101622.09
2022-11-10T06:02:44.208Z,101623.66
2022-11-10T06:05:11.154Z,101632.06
2022-11-10T06:07:40.535Z,101634.97
2022-11-10T06:10:07.440Z,101646.78
2022-11-10T06:12:33.902Z,101643.00
2022-11-10T06:15:00.425Z,101650.22
2022-11-10T06:17:26.904Z,101657.41
2022-11-10T06:19:53.321Z,101661.34
2022-11-10T06:22:19.765Z,101668.69
2022-11-10T06:24:46.763Z,101671.63
2022-11-10T06:27:13.218Z,101678.13
2022-11-10T06:29:39.609Z,101679.34
2022-11-10T06:32:06.124Z,101676.75
2022-11-10T06:34:32.495Z,101679.69
2022-11-10T06:36:58.874Z,101682.44
2022-11-10T06:39:25.294Z,101687.06
2022-11-10T06:41:51.653Z,101686.19
2022-11-10T06:44:18.141Z,101691.69
2022-11-10T06:46:44.510Z,101697.16
2022-11-10T06:49:10.937Z,101695.28
2022-11-10T06:51:37.551Z,101696.13
2022-11-10T06:54:04.199Z,101708.78
2022-11-10T06:56:30.634Z,101708.78
2022-11-10T06:58:57.067Z,101722.47
2022-11-10T07:01:26.518Z,101718.72
2022-11-10T07:04:18.121Z,101720.25
2022-11-10T07:06:39.955Z,101728.16
2022-11-10T07:09:06.743Z,101724.00
2022-11-10T07:11:33.126Z,101731.72
2022-11-10T07:13:59.526Z,101734.97
2022-11-10T07:16:25.956Z,101735.47
2022-11-10T07:18:52.366Z,101743.19
2022-11-10T07:21:19.019Z,101749.84
2022-11-10T07:23:46.822Z,101755.66
2022-11-10T07:26:14.124Z,101769.00
2022-11-10T07:28:40.511Z,101784.78
2022-11-10T07:31:06.882Z,101773.47
2022-11-10T07:33:33.266Z,101773.09
2022-11-10T07:36:03.403Z,101782.69
2022-11-10T07:38:30.028Z,101771.56
2022-11-10T07:40:56.496Z,101783.34
2022-11-10T07:43:25.242Z,101779.59
2022-11-10T07:45:53.036Z,101792.66
2022-11-10T07:48:19.747Z,101798.13
2022-11-10T07:50:46.567Z,101797.06
2022-11-10T07:53:19.993Z,101796.75
2022-11-10T07:55:47.051Z,101806.34
2022-11-10T07:58:16.143Z,101817.81
2022-11-10T08:00:44.083Z,101820.38
2022-11-10T08:03:19.092Z,101815.22
2022-11-10T08:05:45.792Z,101820.03
2022-11-10T08:08:12.459Z,101816.59
2022-11-10T08:10:40.450Z,101819.66
2022-11-10T08:13:09.029Z,101822.72
2022-11-10T08:15:36.168Z,101826.66
2022-11-10T08:18:18.202Z,101827.84
2022-11-10T08:20:45.501Z,101834.69
2022-11-10T08:23:12.378Z,101836.72
2022-11-10T08:25:39.451Z,101838.56
2022-11-10T08:28:10.504Z,101838.69
2022-11-10T08:30:38.748Z,101836.78
2022-11-10T08:33:06.982Z,101843.09
2022-11-10T08:35:36.577Z,101857.81
2022-11-10T08:38:11.560Z,101847.47
2022-11-10T08:40:39.521Z,101858.41
2022-11-10T08:43:07.530Z,101858.16
2022-11-10T08:45:35.397Z,101849.88
2022-11-10T08:48:05.243Z,101852.38
2022-11-10T08:50:32.282Z,101854.88
2022-11-10T08:53:03.525Z,101865.25
2022-11-10T08:55:30.145Z,101865.88
2022-11-10T08:58:01.114Z,101871.59
2022-11-10T09:00:31.236Z,101875.41
2022-11-10T09:03:05.220Z,101869.97
2022-11-10T09:05:31.565Z,101874.69
2022-11-10T09:07:58.001Z,101876.19
2022-11-10T09:10:24.398Z,101887.88
2022-11-10T09:12:51.270Z,101881.31
2022-11-10T09:15:19.740Z,101871.81
2022-11-10T09:17:46.193Z,101877.09
2022-11-10T09:20:12.697Z,101890.84
2022-11-10T09:22:39.773Z,101890.59
2022-11-10T09:25:06.650Z,101876.75
2022-11-10T09:27:38.754Z,101898.22
2022-11-10T09:30:06.418Z,101900.06
2022-11-10T09:32:33.226Z,101890.63
2022-11-10T09:35:00.434Z,101889.88
2022-11-10T09:37:27.478Z,101889.38
2022-11-10T09:39:53.834Z,101895.44
2022-11-10T09:42:33.938Z,101906.84
2022-11-10T09:45:16.174Z,101904.38
2022-11-10T09:48:01.761Z,101911.16
2022-11-10T09:50:35.262Z,101904.44
2022-11-10T09:53:02.683Z,101905.78
2022-11-10T09:55:43.100Z,101894.31
2022-11-10T09:58:12.554Z,101890.50
2022-11-10T10:00:40.551Z,101891.59
2022-11-10T10:03:09.590Z,101897.13
2022-11-10T10:05:41.914Z,101902.00
2022-11-10T10:08:19.900Z,101907.16
2022-11-10T10:11:05.239Z,101907.94
2022-11-10T10:13:48.605Z,101899.78
2022-11-10T10:16:38.219Z,101892.94
2022-11-10T10:19:25.642Z,101898.69
2022-11-10T10:22:01.109Z,101903.31
2022-11-10T10:24:28.034Z,101906.53
2022-11-10T10:26:58.577Z,101911.59
2022-11-10T10:29:36.921Z,101908.97
2022-11-10T10:32:04.174Z,101900.28
2022-11-10T10:34:34.442Z,101900.16
2022-11-10T10:37:01.037Z,101897.38
2022-11-10T10:39:34.920Z,101900.56
2022-11-10T10:42:01.490Z,101902.44
2022-11-10T10:44:27.927Z,101903.91
2022-11-10T10:47:01.052Z,101899.19
2022-11-10T10:49:33.775Z,101913.16
2022-11-10T10:52:09.933Z,101899.91
2022-11-10T10:54:38.200Z,101902.53
2022-11-10T10:57:20.003Z,101898.59
2022-11-10T10:59:47.023Z,101901.38
2022-11-10T11:02:27.696Z,101893.03
2022-11-10T11:05:11.749Z,101891.22
2022-11-10T11:07:38.577Z,101893.69
2022-11-10T11:10:19.363Z,101895.00
2022-11-10T11:12:45.889Z,101895.53
2022-11-10T11:15:28.700Z,101890.03
2022-11-10T11:17:56.986Z,101886.31
2022-11-10T11:20:35.104Z,101881.38
2022-11-10T11:23:31.627Z,101891.44
2022-11-10T11:26:11.651Z,101889.19
2022-11-10T11:28:52.687Z,101887.41
2022-11-10T11:31:42.902Z,101892.72
2022-11-10T11:34:32.545Z,101890.31
2022-11-10T11:37:29.716Z,101898.47
2022-11-10T11:40:14.388Z,101907.41
2022-11-10T11:42:52.984Z,101898.22
2022-11-10T11:45:50.428Z,101896.00
2022-11-10T11:48:35.414Z,101905.50
2022-11-10T11:51:08.386Z,101906.31
2022-11-10T11:53:52.147Z,101907.44
2022-11-10T11:56:24.416Z,101924.13
2022-11-10T11:59:20.858Z,101921.69
2022-11-10T12:02:42.400Z,101923.28
2022-11-10T12:05:31.285Z,101929.59
2022-11-10T12:08:01.337Z,101927.53
2022-11-10T12:10:51.249Z,101932.78
2022-11-10T12:13:48.379Z,101940.22
2022-11-10T12:16:25.897Z,101925.50
2022-11-10T12:18:58.405Z,101938.00
2022-11-10T12:21:33.099Z,101940.56
2022-11-10T12:24:27.567Z,101946.25
2022-11-10T12:26:58.945Z,101943.44
2022-11-10T12:29:43.608Z,101954.41
2022-11-10T12:32:22.301Z,101951.69
2022-11-10T12:35:02.162Z,101950.47
2022-11-10T12:37:35.211Z,101952.78
2022-11-10T12:40:24.787Z,101951.94
2022-11-10T12:43:03.355Z,101952.69
2022-11-10T12:45:40.396Z,101955.03
2022-11-10T12:48:11.406Z,101951.69
2022-11-10T12:51:13.749Z,101965.16
2022-11-10T12:53:42.757Z,101965.16
2022-11-10T12:56:17.975Z,101960.47
2022-11-10T12:58:44.399Z,101956.19
2022-11-10T13:01:19.654Z,101960.28
2022-11-10T13:03:59.043Z,101941.19
2022-11-10T13:06:35.757Z,101950.53
2022-11-10T13:09:03.178Z,101952.97
2022-11-10T13:11:36.566Z,101951.97
2022-11-10T13:14:05.172Z,101941.31
2022-11-10T13:16:40.498Z,101951.53
2022-11-10T13:19:33.913Z,101947.03
2022-11-10T13:22:00.687Z,101956.38
2022-11-10T13:24:29.327Z,101974.88
2022-11-10T13:26:58.115Z,101967.28
2022-11-10T13:29:47.295Z,101972.31
2022-11-10T13:32:13.644Z,101982.56
2022-11-10T13:34:44.498Z,101979.56
2022-11-10T13:37:29.576Z,101984.34
2022-11-10T13:40:25.221Z,101990.78
2022-11-10T13:42:57.393Z,101987.78
2022-11-10T13:45:42.004Z,101988.59
2022-11-10T13:48:11.092Z,101986.06
2022-11-10T13:51:02.368Z,101999.69
2022-11-10T13:53:55.355Z,101999.16
2022-11-10T13:56:39.612Z,101995.78
2022-11-10T13:59:24.759Z,102006.59
2022-11-10T14:01:51.175Z,102006.94
2022-11-10T14:04:35.766Z,102010.91
2022-11-10T14:07:04.838Z,102005.31
2022-11-10T14:09:39.506Z,102007.72
2022-11-10T14:12:19.990Z,102007.91
2022-11-10T14:14:52.727Z,102013.13
2022-11-10T14:17:23.977Z,102015.03
2022-11-10T14:19:50.332Z,102017.38
2022-11-10T14:22:34.905Z,102019.69
2022-11-10T14:25:25.299Z,102014.53
2022-11-10T14:27:57.726Z,102019.78
2022-11-10T14:30:26.662Z,102026.31
2022-11-10T14:33:14.001Z,102040.47
2022-11-10T14:35:57.809Z,102033.53
2022-11-10T14:38:27.229Z,102036.47
2022-11-10T14:40:56.537Z,102036.06
2022-11-10T14:43:39.528Z,102023.31
2022-11-10T14:46:07.820Z,102020.59
2022-11-10T14:48:36.621Z,102026.19
2022-11-10T14:51:06.946Z,102026.19
2022-11-10T14:53:37.012Z,102032.97
2022-11-10T14:56:14.848Z,102025.56
2022-11-10T14:58:42.991Z,102039.75
2022-11-10T15:01:27.457Z,102029.28
2022-11-10T15:03:54.793Z,102032.88
2022-11-10T15:06:21.677Z,102019.91
2022-11-10T15:08:48.243Z,102028.75
2022-11-10T15:11:33.499Z,102028.78
2022-11-10T15:13:59.930Z,102024.19
2022-11-10T15:16:28.758Z,102027.31
2022-11-10T15:18:57.382Z,102028.38
2022-11-10T15:21:33.727Z,102032.59
2022-11-10T15:24:03.060Z,102029.75
2022-11-10T15:26:37.770Z,102040.75
2022-11-10T15:29:04.282Z,102036.63
2022-11-10T15:31:32.437Z,102053.19
2022-11-10T15:34:01.594Z,102051.53
2022-11-10T15:36:34.459Z,102047.97
2022-11-10T15:39:25.031Z,102051.44
2022-11-10T15:41:57.747Z,102060.84
2022-11-10T15:44:25.052Z,102051.25
2022-11-10T15:46:54.259Z,102055.75
2022-11-10T15:49:25.211Z,102055.13
2022-11-10T15:51:52.883Z,102064.31
2022-11-10T15:54:22.501Z,102061.13
2022-11-10T15:56:48.980Z,102069.41
2022-11-10T15:59:15.554Z,102064.50
2022-11-10T16:01:42.125Z,102060.63
2022-11-10T16:04:12.241Z,102063.63
2022-11-10T16:06:39.757Z,102062.47
2022-11-10T16:09:06.949Z,102065.00
2022-11-10T16:11:38.598Z,102079.25
2022-11-10T16:14:05.793Z,102069.41
2022-11-10T16:16:32.674Z,102071.72
2022-11-10T16:18:59.134Z,102069.09
2022-11-10T16:21:26.131Z,102073.53
2022-11-10T16:23:53.322Z,102087.34
2022-11-10T16:26:25.060Z,102090.09
2022-11-10T16:28:51.808Z,102098.53
2022-11-10T16:31:21.888Z,102104.84
2022-11-10T16:33:49.276Z,102108.19
2022-11-10T16:36:27.734Z,102114.44
2022-11-10T16:38:55.064Z,102121.66
2022-11-10T16:41:21.924Z,102108.56
2022-11-10T16:43:48.493Z,102111.28
2022-11-10T16:46:29.859Z,102109.13
2022-11-10T16:48:59.096Z,102114.41
2022-11-10T16:51:31.150Z,102117.53
2022-11-10T16:53:59.440Z,102126.00
2022-11-10T16:56:26.813Z,102129.34
2022-11-10T16:58:53.570Z,102139.47
2022-11-10T17:01:23.836Z,102130.91
2022-11-10T17:03:54.075Z,102130.84
2022-11-10T17:06:23.199Z,102141.81
2022-11-10T17:08:52.264Z,102150.88
2022-11-10T17:11:19.116Z,102145.28
2022-11-10T17:13:45.947Z,102141.56
2022-11-10T17:16:45.436Z,102148.25
2022-11-10T17:19:17.617Z,102155.81
2022-11-10T17:21:44.852Z,102172.28
2022-11-10T17:24:14.087Z,102176.81
2022-11-10T17:26:41.068Z,102185.41
2022-11-10T17:29:15.372Z,102191.22
2022-11-10T17:31:41.810Z,102193.34
2022-11-10T17:34:08.206Z,102205.13
2022-11-10T17:36:35.024Z,102218.63
2022-11-10T17:39:01.492Z,102213.69
2022-11-10T17:41:28.142Z,102216.31
2022-11-10T17:43:54.640Z,102215.34
2022-11-10T17:46:21.021Z,102219.91
2022-11-10T17:48:47.794Z,102216.88
2022-11-10T17:51:19.651Z,102221.50
2022-11-10T17:53:46.124Z,102227.41
2022-11-10T17:56:13.102Z,102225.31
2022-11-10T17:58:39.474Z,102225.31
2022-11-10T18:01:18.466Z,102225.69
2022-11-10T18:03:46.493Z,102230.00
2022-11-10T18:06:14.627Z,102230.75
2022-11-10T18:08:41.841Z,102229.78
2022-11-10T18:11:10.441Z,102226.72
2022-11-10T18:13:40.725Z,102221.06
2022-11-10T18:16:08.980Z,102222.31
2022-11-10T18:18:36.357Z,102225.44
2022-11-10T18:21:03.641Z,102231.28
2022-11-10T18:23:30.244Z,102225.13
2022-11-10T18:26:03.549Z,102222.41
2022-11-10T18:28:29.993Z,102218.66
2022-11-10T18:30:56.472Z,102223.84
2022-11-10T18:33:23.168Z,102227.34
2022-11-10T18:35:49.781Z,102232.50
2022-11-10T18:38:16.219Z,102235.84
2022-11-10T18:40:42.621Z,102234.63
2022-11-10T18:43:09.053Z,102246.38
2022-11-10T18:45:36.209Z,102248.78
2022-11-10T18:48:03.706Z,102248.28
2022-11-10T18:50:30.659Z,102244.00
2022-11-10T18:52:57.481Z,102239.53
2022-11-10T18:55:24.051Z,102248.66
2022-11-10T18:57:50.456Z,102254.31
2022-11-10T19:00:17.023Z,102256.56
2022-11-10T19:02:43.391Z,102246.09
2022-11-10T19:05:09.805Z,102250.88
2022-11-10T19:07:36.185Z,102253.31
2022-11-10T19:10:02.766Z,102259.16
2022-11-10T19:12:29.425Z,102257.47
2022-11-10T19:14:55.861Z,102262.97
2022-11-10T19:17:22.286Z,102265.72
2022-11-10T19:19:53.491Z,102261.25
2022-11-10T19:22:22.571Z,102264.00
2022-11-10T19:25:06.989Z,102269.50
2022-11-10T19:27:34.321Z,102267.94
2022-11-10T19:30:00.865Z,102256.09
2022-11-10T19:32:27.293Z,102258.84
2022-11-10T19:34:53.777Z,102248.88
2022-11-10T19:37:20.434Z,102251.63
2022-11-10T19:39:46.805Z,102250.59
2022-11-10T19:42:13.179Z,102247.84
2022-11-10T19:44:39.631Z,102244.75
2022-11-10T19:47:06.241Z,102241.13
2022-11-10T19:49:32.905Z,102247.16
2022-11-10T19:51:59.302Z,102259.19
2022-11-10T19:54:25.684Z,102262.13
2022-11-10T19:56:52.044Z,102267.78
2022-11-10T19:59:20.728Z,102266.09
2022-11-10T20:01:47.232Z,102259.53
2022-11-10T20:04:13.942Z,102261.41
2022-11-10T20:06:40.445Z,102272.09
2022-11-10T20:09:06.909Z,102265.38
2022-11-10T20:11:33.694Z,102269.16
2022-11-10T20:14:05.475Z,102268.13
2022-11-10T20:16:31.861Z,102270.19
2022-11-10T20:18:58.245Z,102271.25
2022-11-10T20:21:24.695Z,102267.78
2022-11-10T20:23:55.086Z,102278.97
2022-11-10T20:26:21.974Z,102283.97
2022-11-10T20:28:48.337Z,102283.47
2022-11-10T20:31:20.236Z,102279.00
2022-11-10T20:33:51.313Z,102284.66
2022-11-10T20:36:29.635Z,102282.25
2022-11-10T20:38:59.128Z,102283.63
2022-11-10T20:41:27.281Z,102289.66
2022-11-10T20:43:54.869Z,102289.84
2022-11-10T20:46:48.094Z,102286.59
2022-11-10T20:49:08.872Z,102293.44
2022-11-10T20:51:35.270Z,102296.34
2022-11-10T20:54:01.774Z,102292.06
2022-11-10T20:56:29.859Z,102287.59
2022-11-10T20:58:57.555Z,102293.28
2022-11-10T21:01:24.602Z,102296.03
2022-11-10T21:03:51.369Z,102298.94
2022-11-10T21:06:17.845Z,102303.44
2022-11-10T21:08:44.300Z,102309.09
2022-11-10T21:11:11.335Z,102308.91
2022-11-10T21:13:38.286Z,102307.03
2022-11-10T21:16:06.442Z,102303.22
2022-11-10T21:18:35.237Z,102310.47
2022-11-10T21:21:02.050Z,102302.22
2022-11-10T21:23:28.548Z,102304.28
2022-11-10T21:25:59.577Z,102304.28
2022-11-10T21:28:26.557Z,102307.34
2022-11-10T21:31:03.564Z,102307.69
2022-11-10T21:33:30.024Z,102310.78
2022-11-10T21:35:56.452Z,102311.00
2022-11-10T21:38:22.893Z,102311.81
2022-11-10T21:40:49.310Z,102303.06
2022-11-10T21:43:15.748Z,102299.44
2022-11-10T21:45:42.151Z,102291.53
2022-11-10T21:48:08.825Z,102296.03
2022-11-10T21:50:35.253Z,102296.88
2022-11-10T21:53:05.379Z,102306.66
2022-11-10T21:55:31.738Z,102306.31
2022-11-10T21:57:59.156Z,102312.53
2022-11-10T22:00:26.747Z,102315.94
2022-11-10T22:02:58.271Z,102318.53
2022-11-10T22:05:24.810Z,102312.34
2022-11-10T22:07:51.250Z,102320.78
2022-11-10T22:10:37.960Z,102318.38
2022-11-10T22:13:23.176Z,102320.91
2022-11-10T22:16:08.534Z,102319.00
2022-11-10T22:18:37.871Z,102317.81
2022-11-10T22:21:05.643Z,102331.03
2022-11-10T22:23:50.874Z,102332.41
2022-11-10T22:26:18.159Z,102331.88
2022-11-10T22:28:45.584Z,102344.22
2022-11-10T22:31:12.853Z,102346.59
2022-11-10T22:33:42.421Z,102331.19
2022-11-10T22:36:12.242Z,102343.03
2022-11-10T22:38:40.518Z,102344.03
2022-11-10T22:41:31.151Z,102340.59
2022-11-10T22:44:03.711Z,102340.06
2022-11-10T22:46:32.283Z,102335.78
2022-11-10T22:48:58.716Z,102335.25
2022-11-10T22:51:28.395Z,102336.47
2022-11-10T22:53:54.953Z,102340.56
2022-11-10T22:56:21.338Z,102343.78
2022-11-10T22:58:47.798Z,102337.78
2022-11-10T23:01:14.514Z,102336.06
2022-11-10T23:03:41.006Z,102338.63
2022-11-10T23:06:07.669Z,102337.78
2022-11-10T23:08:34.716Z,102338.97
2022-11-10T23:11:04.017Z,102344.47
2022-11-10T23:13:32.207Z,102352.19
2022-11-10T23:16:12.638Z,102359.69
2022-11-10T23:18:40.908Z,102367.25
2022-11-10T23:21:09.941Z,102362.63
2022-11-10T23:23:38.366Z,102356.09
2022-11-10T23:26:08.207Z,102353.19
2022-11-10T23:28:35.689Z,102355.59
2022-11-10T23:31:11.915Z,102354.94
2022-11-10T23:33:40.437Z,102356.09
2022-11-10T23:36:08.976Z,102349.38
2022-11-10T23:38:36.926Z,102356.22
2022-11-10T23:41:04.688Z,102367.69
2022-11-10T23:43:31.651Z,102368.19
2022-11-10T23:46:07.244Z,102368.19
2022-11-10T23:48:35.277Z,102365.63
2022-11-10T23:51:01.827Z,102375.72
2022-11-10T23:53:28.304Z,102372.28
2022-11-10T23:55:59.323Z,102376.06
2022-11-10T23:58:26.177Z,102374.66
